createdAt,value
2023-05-13T00:00:24.766Z,96.42
2023-05-13T00:01:24.746Z,96.21
2023-05-13T00:02:24.772Z,96.11
2023-05-13T00:03:24.761Z,96.08
2023-05-13T00:04:24.711Z,96.13
2023-05-13T00:05:24.688Z,96.02
2023-05-13T00:06:24.737Z,95.86
2023-05-13T00:07:24.681Z,95.78
2023-05-13T00:08:24.675Z,95.73
2023-05-13T00:09:24.650Z,95.69
2023-05-13T00:10:24.657Z,95.62
2023-05-13T00:11:24.609Z,95.47
2023-05-13T00:12:24.612Z,95.50
2023-05-13T00:13:24.590Z,95.58
2023-05-13T00:14:24.570Z,95.70
2023-05-13T00:15:24.568Z,95.65
2023-05-13T00:16:23.627Z,95.70
2023-05-13T00:17:24.581Z,95.55
2023-05-13T00:18:24.588Z,95.50
2023-05-13T00:19:24.501Z,95.46
2023-05-13T00:20:24.477Z,95.54
2023-05-13T00:21:24.469Z,95.57
2023-05-13T00:22:23.526Z,95.78
2023-05-13T00:23:24.457Z,95.93
2023-05-13T00:24:24.435Z,96.14
2023-05-13T00:25:24.435Z,96.31
2023-05-13T00:26:24.425Z,96.49
2023-05-13T00:27:24.435Z,96.69
2023-05-13T00:28:24.390Z,96.80
2023-05-13T00:29:24.356Z,96.90
2023-05-13T00:30:24.361Z,97.01
2023-05-13T00:31:24.412Z,97.12
2023-05-13T00:32:24.367Z,97.22
2023-05-13T00:33:24.320Z,97.28
2023-05-13T00:34:24.308Z,97.32
2023-05-13T00:35:24.287Z,97.38
2023-05-13T00:36:24.275Z,97.53
2023-05-13T00:37:24.278Z,97.57
2023-05-13T00:38:24.245Z,97.60
2023-05-13T00:39:24.234Z,97.60
2023-05-13T00:40:24.439Z,97.62
2023-05-13T00:41:24.204Z,97.68
2023-05-13T00:42:24.215Z,97.79
2023-05-13T00:43:24.182Z,97.85
2023-05-13T00:44:24.171Z,97.96
2023-05-13T00:45:24.157Z,98.14
2023-05-13T00:46:24.222Z,98.31
2023-05-13T00:47:24.175Z,98.45
2023-05-13T00:48:24.126Z,98.66
2023-05-13T00:49:24.102Z,98.84
2023-05-13T00:50:24.369Z,98.98
2023-05-13T00:51:24.084Z,99.13
2023-05-13T00:52:24.077Z,99.26
2023-05-13T00:53:24.047Z,99.38
2023-05-13T00:54:24.029Z,99.50
2023-05-13T00:55:24.025Z,99.59
2023-05-13T00:56:24.017Z,99.67
2023-05-13T00:57:23.996Z,99.73
2023-05-13T00:58:23.976Z,99.73
2023-05-13T00:59:23.973Z,99.79
2023-05-13T01:00:23.945Z,99.87
2023-05-13T01:01:24.008Z,99.98
2023-05-13T01:02:23.963Z,100.00
2023-05-13T01:03:23.975Z,100.00
2023-05-13T01:04:23.881Z,100.00
2023-05-13T01:05:23.881Z,100.00
2023-05-13T01:06:23.882Z,100.00
2023-05-13T01:07:23.862Z,100.00
2023-05-13T01:08:23.830Z,100.00
2023-05-13T01:09:23.828Z,100.00
2023-05-13T01:10:23.959Z,100.00
2023-05-13T01:11:23.827Z,100.00
2023-05-13T01:12:23.789Z,100.00
2023-05-13T01:13:23.805Z,100.00
2023-05-13T01:14:23.759Z,100.00
2023-05-13T01:15:23.763Z,100.00
2023-05-13T01:16:23.780Z,100.00
2023-05-13T01:17:23.742Z,100.00
2023-05-13T01:18:23.722Z,99.99
2023-05-13T01:19:23.688Z,99.96
2023-05-13T01:20:24.160Z,99.93
2023-05-13T01:21:23.653Z,99.83
2023-05-13T01:22:23.643Z,99.69
2023-05-13T01:23:23.624Z,99.46
2023-05-13T01:24:23.651Z,99.25
2023-05-13T01:25:23.612Z,99.14
2023-05-13T01:26:23.580Z,99.09
2023-05-13T01:27:23.576Z,99.06
2023-05-13T01:28:23.571Z,99.03
2023-05-13T01:29:23.564Z,99.00
2023-05-13T01:30:23.867Z,98.94
2023-05-13T01:31:23.587Z,98.90
2023-05-13T01:32:23.538Z,98.83
2023-05-13T01:33:23.001Z,98.81
2023-05-13T01:34:23.477Z,98.78
2023-05-13T01:35:23.477Z,98.74
2023-05-13T01:36:23.463Z,98.68
2023-05-13T01:37:23.454Z,98.65
2023-05-13T01:38:23.431Z,98.66
2023-05-13T01:39:23.432Z,98.73
2023-05-13T01:40:32.343Z,98.79
2023-05-13T01:41:24.440Z,98.82
2023-05-13T01:42:23.367Z,98.82
2023-05-13T01:43:23.373Z,98.84
2023-05-13T01:44:23.363Z,98.85
2023-05-13T01:45:23.328Z,98.88
2023-05-13T01:46:23.349Z,98.92
2023-05-13T01:47:23.366Z,98.98
2023-05-13T01:48:23.289Z,99.03
2023-05-13T01:49:23.291Z,99.08
2023-05-13T01:50:23.548Z,99.08
2023-05-13T01:51:23.259Z,99.11
2023-05-13T01:52:23.252Z,99.17
2023-05-13T01:53:23.253Z,99.25
2023-05-13T01:54:23.261Z,99.32
2023-05-13T01:55:21.890Z,99.42
2023-05-13T01:56:23.190Z,99.47
2023-05-13T01:57:23.200Z,99.56
2023-05-13T01:58:23.178Z,99.61
2023-05-13T01:59:23.430Z,99.71
2023-05-13T02:00:23.239Z,99.76
2023-05-13T02:01:22.707Z,99.85
2023-05-13T02:02:23.925Z,99.91
2023-05-13T02:03:23.688Z,100.00
2023-05-13T02:04:21.835Z,100.00
2023-05-13T02:05:23.080Z,100.00
2023-05-13T02:06:23.077Z,100.00
2023-05-13T02:07:23.029Z,100.00
2023-05-13T02:08:23.029Z,100.00
2023-05-13T02:09:23.006Z,100.00
2023-05-13T02:10:23.179Z,100.00
2023-05-13T02:11:22.977Z,100.00
2023-05-13T02:12:22.965Z,100.00
2023-05-13T02:13:22.968Z,100.00
2023-05-13T02:14:22.931Z,100.00
2023-05-13T02:15:22.913Z,100.00
2023-05-13T02:16:22.981Z,100.00
2023-05-13T02:17:23.045Z,100.00
2023-05-13T02:18:22.919Z,100.00
2023-05-13T02:19:22.890Z,100.00
2023-05-13T02:20:23.173Z,100.00
2023-05-13T02:21:22.850Z,100.00
2023-05-13T02:22:22.833Z,100.00
2023-05-13T02:23:22.816Z,100.00
2023-05-13T02:24:22.799Z,100.00
2023-05-13T02:25:22.789Z,100.00
2023-05-13T02:26:22.783Z,100.00
2023-05-13T02:27:22.760Z,100.00
2023-05-13T02:28:21.389Z,100.00
2023-05-13T02:29:22.734Z,100.00
2023-05-13T02:30:22.946Z,100.00
2023-05-13T02:31:22.726Z,100.00
2023-05-13T02:32:22.696Z,100.00
2023-05-13T02:33:22.681Z,100.00
2023-05-13T02:34:22.674Z,100.00
2023-05-13T02:35:22.674Z,100.00
2023-05-13T02:36:21.647Z,100.00
2023-05-13T02:37:22.632Z,100.00
2023-05-13T02:38:21.673Z,100.00
2023-05-13T02:39:22.616Z,100.00
2023-05-13T02:40:22.972Z,100.00
2023-05-13T02:41:22.584Z,100.00
2023-05-13T02:42:22.572Z,100.00
2023-05-13T02:43:22.543Z,100.00
2023-05-13T02:44:22.520Z,100.00
2023-05-13T02:45:22.521Z,100.00
2023-05-13T02:46:22.644Z,100.00
2023-05-13T02:47:22.516Z,100.00
2023-05-13T02:48:22.477Z,100.00
2023-05-13T02:49:22.451Z,100.00
2023-05-13T02:50:22.682Z,100.00
2023-05-13T02:51:22.445Z,100.00
2023-05-13T02:52:22.410Z,100.00
2023-05-13T02:53:22.404Z,100.00
2023-05-13T02:54:22.401Z,100.00
2023-05-13T02:55:22.417Z,100.00
2023-05-13T02:56:22.380Z,100.00
2023-05-13T02:57:22.343Z,100.00
2023-05-13T02:58:22.341Z,100.00
2023-05-13T02:59:22.350Z,100.00
2023-05-13T03:00:22.536Z,100.00
2023-05-13T03:01:22.356Z,100.00
2023-05-13T03:02:22.349Z,100.00
2023-05-13T03:03:22.410Z,100.00
2023-05-13T03:04:22.270Z,100.00
2023-05-13T03:05:22.248Z,100.00
2023-05-13T03:06:22.252Z,100.00
2023-05-13T03:07:22.211Z,100.00
2023-05-13T03:08:22.207Z,100.00
2023-05-13T03:09:22.195Z,100.00
2023-05-13T03:10:22.349Z,100.00
2023-05-13T03:11:22.164Z,100.00
2023-05-13T03:12:22.161Z,100.00
2023-05-13T03:13:22.136Z,100.00
2023-05-13T03:14:22.116Z,100.00
2023-05-13T03:15:22.131Z,100.00
2023-05-13T03:16:22.130Z,100.00
2023-05-13T03:17:22.144Z,100.00
2023-05-13T03:18:22.125Z,100.00
2023-05-13T03:19:22.051Z,100.00
2023-05-13T03:20:22.268Z,100.00
2023-05-13T03:21:22.033Z,100.00
2023-05-13T03:22:22.042Z,100.00
2023-05-13T03:23:22.000Z,100.00
2023-05-13T03:24:21.990Z,100.00
2023-05-13T03:25:21.991Z,100.00
2023-05-13T03:26:21.968Z,100.00
2023-05-13T03:27:20.976Z,100.00
2023-05-13T03:28:21.946Z,100.00
2023-05-13T03:29:20.980Z,100.00
2023-05-13T03:30:22.174Z,100.00
2023-05-13T03:31:21.409Z,100.00
2023-05-13T03:32:21.890Z,100.00
2023-05-13T03:33:21.865Z,100.00
2023-05-13T03:34:21.877Z,100.00
2023-05-13T03:35:21.012Z,100.00
2023-05-13T03:36:21.829Z,100.00
2023-05-13T03:37:21.806Z,100.00
2023-05-13T03:38:21.783Z,100.00
2023-05-13T03:39:21.792Z,100.00
2023-05-13T03:40:21.985Z,100.00
2023-05-13T03:41:21.753Z,100.00
2023-05-13T03:42:21.754Z,100.00
2023-05-13T03:43:21.757Z,100.00
2023-05-13T03:44:21.736Z,100.00
2023-05-13T03:45:21.702Z,100.00
2023-05-13T03:46:21.737Z,100.00
2023-05-13T03:47:21.694Z,100.00
2023-05-13T03:48:20.303Z,100.00
2023-05-13T03:49:21.679Z,100.00
2023-05-13T03:50:21.798Z,100.00
2023-05-13T03:51:21.624Z,100.00
2023-05-13T03:52:21.613Z,100.00
2023-05-13T03:53:21.620Z,100.00
2023-05-13T03:54:21.591Z,100.00
2023-05-13T03:55:21.558Z,100.00
2023-05-13T03:56:21.588Z,100.00
2023-05-13T03:57:21.556Z,100.00
2023-05-13T03:58:21.546Z,100.00
2023-05-13T03:59:21.515Z,100.00
2023-05-13T04:00:21.716Z,100.00
2023-05-13T04:01:21.495Z,100.00
2023-05-13T04:02:21.562Z,100.00
2023-05-13T04:03:21.554Z,100.00
2023-05-13T04:04:20.000Z,100.00
2023-05-13T04:05:21.475Z,100.00
2023-05-13T04:06:21.423Z,100.00
2023-05-13T04:07:21.408Z,100.00
2023-05-13T04:08:21.394Z,100.00
2023-05-13T04:09:21.373Z,100.00
2023-05-13T04:10:21.602Z,100.00
2023-05-13T04:11:21.363Z,100.00
2023-05-13T04:12:21.364Z,100.00
2023-05-13T04:13:21.329Z,100.00
2023-05-13T04:14:21.315Z,100.00
2023-05-13T04:15:21.294Z,100.00
2023-05-13T04:16:21.351Z,100.00
2023-05-13T04:17:21.339Z,100.00
2023-05-13T04:18:21.259Z,100.00
2023-05-13T04:19:21.246Z,100.00
2023-05-13T04:20:21.367Z,100.00
2023-05-13T04:21:21.242Z,100.00
2023-05-13T04:22:21.210Z,100.00
2023-05-13T04:23:21.188Z,100.00
2023-05-13T04:24:21.182Z,100.00
2023-05-13T04:25:21.171Z,100.00
2023-05-13T04:26:21.175Z,100.00
2023-05-13T04:27:21.137Z,100.00
2023-05-13T04:28:21.126Z,100.00
2023-05-13T04:29:21.128Z,100.00
2023-05-13T04:30:21.233Z,100.00
2023-05-13T04:31:21.112Z,100.00
2023-05-13T04:32:21.105Z,100.00
2023-05-13T04:33:21.073Z,100.00
2023-05-13T04:34:21.040Z,100.00
2023-05-13T04:35:21.053Z,100.00
2023-05-13T04:36:21.015Z,100.00
2023-05-13T04:37:21.005Z,100.00
2023-05-13T04:38:21.003Z,100.00
2023-05-13T04:39:20.982Z,100.00
2023-05-13T04:40:21.205Z,100.00
2023-05-13T04:41:20.939Z,100.00
2023-05-13T04:42:20.951Z,100.00
2023-05-13T04:43:20.924Z,100.00
2023-05-13T04:44:19.739Z,100.00
2023-05-13T04:45:20.908Z,100.00
2023-05-13T04:46:20.966Z,100.00
2023-05-13T04:47:20.893Z,100.00
2023-05-13T04:48:20.889Z,100.00
2023-05-13T04:49:20.858Z,100.00
2023-05-13T04:50:20.965Z,100.00
2023-05-13T04:51:20.814Z,100.00
2023-05-13T04:52:20.802Z,100.00
2023-05-13T04:53:20.796Z,100.00
2023-05-13T04:54:20.797Z,100.00
2023-05-13T04:55:20.274Z,100.00
2023-05-13T04:56:19.819Z,100.00
2023-05-13T04:57:20.735Z,100.00
2023-05-13T04:58:20.726Z,100.00
2023-05-13T04:59:20.730Z,100.00
2023-05-13T05:00:20.961Z,100.00
2023-05-13T05:01:20.721Z,100.00
2023-05-13T05:02:20.672Z,100.00
2023-05-13T05:03:20.693Z,100.00
2023-05-13T05:04:20.659Z,100.00
2023-05-13T05:05:20.633Z,100.00
2023-05-13T05:06:20.617Z,100.00
2023-05-13T05:07:20.592Z,100.00
2023-05-13T05:08:20.595Z,100.00
2023-05-13T05:09:20.611Z,99.36
2023-05-13T05:10:20.811Z,98.52
2023-05-13T05:11:20.560Z,97.94
2023-05-13T05:12:20.532Z,96.83
2023-05-13T05:13:20.528Z,95.93
2023-05-13T05:14:20.501Z,95.00
2023-05-13T05:15:20.485Z,94.77
2023-05-13T05:16:20.475Z,94.21
2023-05-13T05:17:20.490Z,93.38
2023-05-13T05:18:20.533Z,92.66
2023-05-13T05:19:20.489Z,91.47
2023-05-13T05:20:20.554Z,90.59
2023-05-13T05:21:20.418Z,89.75
2023-05-13T05:22:20.395Z,89.31
2023-05-13T05:23:20.400Z,89.70
2023-05-13T05:24:20.380Z,90.17
2023-05-13T05:25:20.347Z,91.02
2023-05-13T05:26:20.338Z,91.68
2023-05-13T05:27:20.353Z,92.15
2023-05-13T05:28:20.325Z,93.00
2023-05-13T05:29:20.303Z,93.64
2023-05-13T05:30:20.507Z,94.42
2023-05-13T05:31:20.292Z,95.32
2023-05-13T05:32:20.310Z,96.04
2023-05-13T05:33:20.257Z,96.69
2023-05-13T05:34:20.227Z,97.16
2023-05-13T05:35:20.221Z,97.53
2023-05-13T05:36:20.203Z,97.82
2023-05-13T05:37:20.194Z,98.24
2023-05-13T05:38:20.193Z,98.72
2023-05-13T05:39:20.166Z,99.20
2023-05-13T05:40:20.397Z,99.52
2023-05-13T05:41:20.131Z,99.70
2023-05-13T05:42:20.131Z,99.89
2023-05-13T05:43:20.130Z,100.00
2023-05-13T05:44:20.103Z,100.00
2023-05-13T05:45:19.129Z,100.00
2023-05-13T05:46:20.104Z,100.00
2023-05-13T05:47:19.140Z,100.00
2023-05-13T05:48:20.046Z,100.00
2023-05-13T05:49:20.065Z,100.00
2023-05-13T05:50:20.337Z,100.00
2023-05-13T05:51:20.017Z,100.00
2023-05-13T05:52:20.017Z,100.00
2023-05-13T05:53:19.993Z,100.00
2023-05-13T05:54:19.958Z,100.00
2023-05-13T05:55:19.942Z,100.00
2023-05-13T05:56:19.933Z,100.00
2023-05-13T05:57:19.920Z,100.00
2023-05-13T05:58:19.892Z,100.00
2023-05-13T05:59:19.912Z,100.00
2023-05-13T06:00:19.090Z,100.00
2023-05-13T06:01:18.912Z,100.00
2023-05-13T06:02:19.867Z,100.00
2023-05-13T06:03:19.890Z,100.00
2023-05-13T06:04:19.844Z,100.00
2023-05-13T06:05:19.806Z,100.00
2023-05-13T06:06:19.804Z,100.00
2023-05-13T06:07:19.788Z,99.62
2023-05-13T06:08:19.756Z,99.25
2023-05-13T06:09:19.753Z,98.90
2023-05-13T06:10:19.876Z,98.77
2023-05-13T06:11:19.742Z,98.49
2023-05-13T06:12:19.716Z,98.23
2023-05-13T06:13:19.711Z,98.23
2023-05-13T06:14:19.692Z,98.22
2023-05-13T06:15:19.687Z,97.96
2023-05-13T06:16:19.701Z,97.73
2023-05-13T06:17:19.651Z,97.28
2023-05-13T06:18:19.623Z,97.11
2023-05-13T06:19:19.625Z,96.83
2023-05-13T06:20:19.912Z,96.71
2023-05-13T06:21:19.590Z,96.21
2023-05-13T06:22:19.574Z,95.64
2023-05-13T06:23:19.554Z,95.20
2023-05-13T06:24:19.558Z,94.44
2023-05-13T06:25:19.543Z,93.63
2023-05-13T06:26:19.526Z,91.66
2023-05-13T06:27:19.516Z,89.90
2023-05-13T06:28:19.512Z,87.12
2023-05-13T06:29:19.483Z,85.55
2023-05-13T06:30:19.662Z,83.51
2023-05-13T06:31:19.514Z,82.21
2023-05-13T06:32:19.433Z,80.47
2023-05-13T06:33:19.459Z,79.99
2023-05-13T06:34:19.409Z,79.43
2023-05-13T06:35:19.403Z,79.20
2023-05-13T06:36:19.379Z,77.63
2023-05-13T06:37:19.358Z,76.98
2023-05-13T06:38:19.348Z,76.53
2023-05-13T06:39:19.346Z,75.86
2023-05-13T06:40:19.471Z,74.70
2023-05-13T06:41:19.318Z,74.33
2023-05-13T06:42:19.304Z,74.20
2023-05-13T06:43:19.276Z,73.54
2023-05-13T06:44:19.279Z,72.84
2023-05-13T06:45:19.256Z,72.06
2023-05-13T06:46:19.279Z,71.52
2023-05-13T06:47:20.214Z,70.19
2023-05-13T06:48:19.229Z,70.14
2023-05-13T06:49:19.207Z,70.27
2023-05-13T06:50:19.369Z,70.45
2023-05-13T06:51:19.174Z,69.90
2023-05-13T06:52:19.166Z,70.50
2023-05-13T06:53:19.156Z,69.66
2023-05-13T06:54:19.152Z,69.15
2023-05-13T06:55:19.207Z,69.70
2023-05-13T06:56:19.117Z,69.50
2023-05-13T06:57:19.406Z,70.12
2023-05-13T06:58:19.086Z,69.61
2023-05-13T06:59:19.155Z,69.61
2023-05-13T07:00:19.197Z,69.39
2023-05-13T07:01:19.126Z,68.41
2023-05-13T07:02:19.018Z,68.34
2023-05-13T07:03:19.142Z,67.03
2023-05-13T07:04:19.128Z,67.93
2023-05-13T07:05:18.987Z,67.25
2023-05-13T07:06:18.542Z,67.57
2023-05-13T07:07:18.953Z,67.04
2023-05-13T07:08:19.010Z,67.56
2023-05-13T07:09:18.915Z,67.31
2023-05-13T07:10:18.943Z,66.36
2023-05-13T07:11:19.448Z,65.11
2023-05-13T07:12:18.911Z,66.25
2023-05-13T07:13:18.576Z,66.43
2023-05-13T07:14:17.597Z,66.88
2023-05-13T07:15:18.928Z,65.74
2023-05-13T07:16:18.836Z,64.71
2023-05-13T07:17:18.874Z,64.55
2023-05-13T07:18:17.609Z,64.48
2023-05-13T07:19:18.837Z,64.24
2023-05-13T07:20:18.806Z,64.68
2023-05-13T07:21:18.814Z,64.57
2023-05-13T07:22:18.754Z,64.41
2023-05-13T07:23:18.727Z,64.08
2023-05-13T07:24:18.714Z,64.03
2023-05-13T07:25:18.717Z,64.53
2023-05-13T07:26:18.687Z,65.14
2023-05-13T07:27:18.687Z,64.49
2023-05-13T07:28:18.665Z,64.46
2023-05-13T07:29:18.659Z,63.57
2023-05-13T07:30:18.643Z,64.41
2023-05-13T07:31:18.753Z,64.38
2023-05-13T07:32:18.838Z,62.52
2023-05-13T07:33:18.603Z,62.45
2023-05-13T07:34:18.587Z,62.16
2023-05-13T07:35:18.657Z,61.85
2023-05-13T07:36:18.564Z,62.19
2023-05-13T07:37:18.535Z,61.50
2023-05-13T07:38:18.537Z,62.27
2023-05-13T07:39:18.510Z,62.42
2023-05-13T07:40:18.520Z,61.94
2023-05-13T07:41:18.512Z,61.77
2023-05-13T07:42:18.487Z,61.46
2023-05-13T07:43:18.469Z,61.40
2023-05-13T07:44:18.472Z,61.13
2023-05-13T07:45:18.448Z,61.65
2023-05-13T07:46:18.434Z,61.96
2023-05-13T07:47:18.454Z,61.72
2023-05-13T07:48:18.405Z,61.70
2023-05-13T07:49:18.407Z,61.72
2023-05-13T07:50:18.389Z,61.58
2023-05-13T07:51:18.402Z,62.30
2023-05-13T07:52:18.353Z,60.20
2023-05-13T07:53:19.747Z,60.91
2023-05-13T07:54:18.330Z,61.34
2023-05-13T07:55:18.326Z,62.42
2023-05-13T07:56:18.301Z,61.56
2023-05-13T07:57:18.292Z,60.53
2023-05-13T07:58:18.259Z,59.48
2023-05-13T07:59:18.258Z,60.53
2023-05-13T08:00:18.247Z,60.21
2023-05-13T08:01:18.224Z,60.23
2023-05-13T08:02:18.244Z,60.28
2023-05-13T08:03:18.242Z,60.67
2023-05-13T08:04:18.375Z,60.17
2023-05-13T08:05:18.189Z,59.11
2023-05-13T08:06:17.203Z,58.52
2023-05-13T08:07:18.147Z,58.58
2023-05-13T08:08:18.139Z,59.84
2023-05-13T08:09:18.141Z,58.01
2023-05-13T08:10:18.125Z,58.08
2023-05-13T08:11:18.093Z,57.55
2023-05-13T08:12:18.076Z,58.04
2023-05-13T08:13:18.084Z,58.02
2023-05-13T08:14:16.736Z,57.48
2023-05-13T08:15:18.043Z,56.76
2023-05-13T08:16:18.050Z,55.51
2023-05-13T08:17:18.017Z,55.45
2023-05-13T08:18:18.012Z,56.09
2023-05-13T08:19:18.019Z,56.13
2023-05-13T08:20:17.976Z,55.54
2023-05-13T08:21:17.953Z,55.04
2023-05-13T08:22:17.947Z,55.17
2023-05-13T08:23:17.954Z,55.33
2023-05-13T08:24:17.924Z,55.23
2023-05-13T08:25:17.904Z,55.17
2023-05-13T08:26:17.897Z,56.55
2023-05-13T08:27:17.871Z,56.22
2023-05-13T08:28:17.879Z,55.77
2023-05-13T08:29:17.862Z,56.07
2023-05-13T08:30:17.843Z,54.94
2023-05-13T08:31:17.858Z,54.85
2023-05-13T08:32:17.893Z,54.73
2023-05-13T08:33:17.812Z,53.77
2023-05-13T08:34:17.789Z,53.92
2023-05-13T08:35:17.784Z,53.98
2023-05-13T08:36:17.768Z,54.22
2023-05-13T08:37:17.761Z,54.32
2023-05-13T08:38:17.743Z,55.02
2023-05-13T08:39:17.727Z,54.70
2023-05-13T08:40:17.718Z,54.21
2023-05-13T08:41:18.962Z,53.98
2023-05-13T08:42:17.707Z,53.16
2023-05-13T08:43:17.176Z,53.26
2023-05-13T08:44:17.655Z,53.16
2023-05-13T08:45:17.652Z,53.32
2023-05-13T08:46:17.669Z,53.37
2023-05-13T08:47:17.705Z,54.07
2023-05-13T08:48:17.683Z,54.24
2023-05-13T08:49:17.597Z,52.86
2023-05-13T08:50:17.584Z,53.48
2023-05-13T08:51:17.566Z,52.52
2023-05-13T08:52:17.570Z,52.93
2023-05-13T08:53:17.547Z,52.87
2023-05-13T08:54:17.550Z,52.76
2023-05-13T08:55:17.527Z,51.55
2023-05-13T08:56:17.536Z,52.22
2023-05-13T08:57:17.514Z,52.94
2023-05-13T08:58:17.487Z,51.71
2023-05-13T08:59:17.481Z,51.91
2023-05-13T09:00:19.993Z,51.44
2023-05-13T09:01:17.477Z,50.55
2023-05-13T09:02:17.435Z,50.34
2023-05-13T09:03:17.414Z,49.12
2023-05-13T09:04:17.404Z,49.94
2023-05-13T09:05:17.414Z,50.23
2023-05-13T09:06:17.387Z,49.65
2023-05-13T09:07:17.368Z,49.44
2023-05-13T09:08:17.355Z,49.18
2023-05-13T09:09:17.337Z,50.06
2023-05-13T09:10:17.329Z,50.68
2023-05-13T09:11:17.342Z,50.89
2023-05-13T09:12:17.298Z,50.33
2023-05-13T09:13:17.292Z,49.98
2023-05-13T09:14:17.277Z,49.22
2023-05-13T09:15:17.291Z,48.71
2023-05-13T09:16:17.281Z,49.26
2023-05-13T09:17:17.255Z,48.35
2023-05-13T09:18:18.868Z,49.12
2023-05-13T09:19:17.352Z,49.29
2023-05-13T09:20:17.204Z,48.67
2023-05-13T09:21:17.188Z,48.27
2023-05-13T09:22:17.171Z,47.72
2023-05-13T09:23:16.027Z,48.63
2023-05-13T09:24:17.141Z,48.32
2023-05-13T09:25:17.158Z,49.84
2023-05-13T09:26:17.113Z,48.07
2023-05-13T09:27:17.103Z,47.67
2023-05-13T09:28:17.108Z,46.98
2023-05-13T09:29:17.110Z,46.96
2023-05-13T09:30:17.092Z,47.04
2023-05-13T09:31:17.106Z,47.31
2023-05-13T09:32:17.043Z,46.08
2023-05-13T09:33:17.107Z,46.09
2023-05-13T09:34:17.047Z,45.82
2023-05-13T09:35:16.050Z,44.82
2023-05-13T09:36:16.049Z,46.69
2023-05-13T09:37:16.970Z,46.78
2023-05-13T09:38:16.972Z,47.13
2023-05-13T09:39:15.562Z,46.73
2023-05-13T09:40:16.950Z,47.09
2023-05-13T09:41:15.984Z,47.85
2023-05-13T09:42:15.990Z,46.57
2023-05-13T09:43:16.929Z,47.59
2023-05-13T09:44:16.921Z,46.92
2023-05-13T09:45:16.891Z,46.63
2023-05-13T09:46:16.894Z,46.89
2023-05-13T09:47:16.912Z,46.61
2023-05-13T09:48:16.868Z,46.10
2023-05-13T09:49:16.839Z,45.98
2023-05-13T09:50:16.822Z,46.78
2023-05-13T09:51:16.822Z,47.12
2023-05-13T09:52:16.789Z,45.91
2023-05-13T09:53:16.791Z,46.13
2023-05-13T09:54:16.779Z,46.72
2023-05-13T09:55:16.759Z,45.92
2023-05-13T09:56:16.742Z,45.12
2023-05-13T09:57:16.773Z,46.23
2023-05-13T09:58:16.744Z,46.25
2023-05-13T09:59:16.738Z,46.09
2023-05-13T10:00:28.940Z,46.42
2023-05-13T10:01:17.742Z,46.93
2023-05-13T10:02:16.693Z,46.35
2023-05-13T10:03:16.657Z,47.67
2023-05-13T10:04:16.736Z,46.55
2023-05-13T10:05:16.646Z,46.46
2023-05-13T10:06:16.611Z,46.02
2023-05-13T10:07:16.632Z,46.78
2023-05-13T10:08:16.601Z,44.06
2023-05-13T10:09:16.578Z,43.75
2023-05-13T10:10:16.138Z,44.85
2023-05-13T10:11:16.564Z,44.40
2023-05-13T10:12:16.558Z,43.43
2023-05-13T10:13:16.592Z,43.30
2023-05-13T10:14:16.519Z,44.10
2023-05-13T10:15:16.520Z,42.59
2023-05-13T10:16:16.538Z,42.00
2023-05-13T10:17:16.495Z,42.87
2023-05-13T10:18:16.517Z,43.45
2023-05-13T10:19:16.568Z,44.43
2023-05-13T10:20:16.441Z,44.16
2023-05-13T10:21:16.453Z,44.76
2023-05-13T10:22:16.414Z,43.36
2023-05-13T10:23:16.427Z,42.63
2023-05-13T10:24:16.382Z,41.71
2023-05-13T10:25:16.383Z,40.36
2023-05-13T10:26:16.372Z,42.33
2023-05-13T10:27:16.342Z,42.02
2023-05-13T10:28:16.324Z,43.53
2023-05-13T10:29:16.336Z,43.40
2023-05-13T10:30:16.344Z,41.46
2023-05-13T10:31:16.347Z,41.14
2023-05-13T10:32:16.331Z,41.13
2023-05-13T10:33:16.370Z,41.98
2023-05-13T10:34:16.270Z,42.88
2023-05-13T10:35:16.257Z,42.14
2023-05-13T10:36:16.311Z,42.05
2023-05-13T10:37:16.223Z,42.35
2023-05-13T10:38:16.220Z,41.91
2023-05-13T10:39:16.219Z,41.80
2023-05-13T10:40:16.384Z,41.69
2023-05-13T10:41:16.171Z,40.79
2023-05-13T10:42:16.166Z,41.09
2023-05-13T10:43:16.145Z,41.09
2023-05-13T10:44:16.202Z,42.17
2023-05-13T10:45:16.136Z,42.62
2023-05-13T10:46:16.121Z,42.25
2023-05-13T10:47:15.622Z,42.38
2023-05-13T10:48:16.258Z,43.76
2023-05-13T10:49:16.069Z,44.51
2023-05-13T10:50:16.071Z,45.00
2023-05-13T10:51:16.049Z,44.94
2023-05-13T10:52:16.027Z,44.61
2023-05-13T10:53:16.024Z,45.75
2023-05-13T10:54:16.016Z,48.63
2023-05-13T10:55:16.000Z,47.48
2023-05-13T10:56:15.486Z,48.32
2023-05-13T10:57:17.733Z,47.12
2023-05-13T10:58:15.959Z,49.29
2023-05-13T10:59:15.959Z,51.65
2023-05-13T11:00:16.166Z,50.40
2023-05-13T11:01:16.009Z,49.04
2023-05-13T11:02:15.431Z,49.34
2023-05-13T11:03:16.016Z,50.02
2023-05-13T11:04:15.911Z,48.90
2023-05-13T11:05:15.904Z,46.52
2023-05-13T11:06:15.887Z,48.44
2023-05-13T11:07:15.846Z,48.66
2023-05-13T11:08:14.884Z,47.56
2023-05-13T11:09:14.906Z,47.67
2023-05-13T11:10:15.876Z,46.26
2023-05-13T11:11:15.787Z,47.67
2023-05-13T11:12:15.790Z,46.56
2023-05-13T11:13:15.752Z,45.04
2023-05-13T11:14:15.786Z,43.99
2023-05-13T11:15:15.750Z,44.19
2023-05-13T11:16:15.785Z,44.97
2023-05-13T11:17:15.715Z,43.22
2023-05-13T11:18:15.718Z,42.29
2023-05-13T11:19:15.793Z,42.03
2023-05-13T11:20:15.676Z,42.04
2023-05-13T11:21:15.657Z,42.45
2023-05-13T11:22:15.640Z,44.02
2023-05-13T11:23:15.647Z,42.83
2023-05-13T11:24:15.644Z,43.07
2023-05-13T11:25:15.626Z,42.05
2023-05-13T11:26:15.595Z,43.01
2023-05-13T11:27:15.578Z,43.33
2023-05-13T11:28:15.589Z,44.62
2023-05-13T11:29:15.554Z,43.50
2023-05-13T11:30:15.532Z,43.82
2023-05-13T11:31:15.536Z,43.33
2023-05-13T11:32:15.507Z,45.60
2023-05-13T11:33:15.507Z,45.76
2023-05-13T11:34:15.484Z,45.29
2023-05-13T11:35:15.485Z,45.32
2023-05-13T11:36:15.465Z,42.64
2023-05-13T11:37:15.459Z,42.01
2023-05-13T11:38:15.456Z,43.94
2023-05-13T11:39:15.420Z,44.37
2023-05-13T11:40:15.759Z,46.25
2023-05-13T11:41:15.112Z,48.63
2023-05-13T11:42:16.443Z,48.27
2023-05-13T11:43:15.404Z,48.62
2023-05-13T11:44:15.375Z,49.27
2023-05-13T11:45:15.365Z,49.37
2023-05-13T11:46:15.391Z,50.04
2023-05-13T11:47:15.330Z,50.39
2023-05-13T11:48:15.315Z,50.52
2023-05-13T11:49:15.289Z,51.08
2023-05-13T11:50:15.295Z,51.49
2023-05-13T11:51:17.333Z,51.58
2023-05-13T11:52:15.284Z,52.85
2023-05-13T11:53:15.253Z,53.04
2023-05-13T11:54:15.219Z,52.39
2023-05-13T11:55:15.216Z,52.41
2023-05-13T11:56:15.211Z,53.19
2023-05-13T11:57:15.147Z,54.01
2023-05-13T11:58:15.198Z,54.18
2023-05-13T11:59:15.155Z,53.75
2023-05-13T12:00:15.144Z,54.80
2023-05-13T12:01:15.136Z,54.44
2023-05-13T12:02:14.295Z,54.63
2023-05-13T12:03:15.157Z,53.44
2023-05-13T12:04:15.097Z,53.51
2023-05-13T12:05:15.181Z,52.96
2023-05-13T12:06:15.084Z,53.16
2023-05-13T12:07:14.110Z,53.06
2023-05-13T12:08:14.117Z,52.77
2023-05-13T12:09:15.042Z,52.46
2023-05-13T12:10:15.026Z,52.72
2023-05-13T12:11:15.004Z,52.68
2023-05-13T12:12:15.007Z,52.60
2023-05-13T12:13:14.990Z,51.96
2023-05-13T12:14:14.977Z,51.93
2023-05-13T12:15:14.985Z,52.06
2023-05-13T12:16:14.971Z,50.65
2023-05-13T12:17:14.935Z,50.95
2023-05-13T12:18:15.004Z,51.04
2023-05-13T12:19:15.103Z,49.69
2023-05-13T12:20:14.927Z,48.95
2023-05-13T12:21:14.883Z,49.16
2023-05-13T12:22:14.864Z,48.79
2023-05-13T12:23:14.866Z,48.18
2023-05-13T12:24:14.875Z,46.75
2023-05-13T12:25:14.853Z,47.10
2023-05-13T12:26:14.836Z,48.12
2023-05-13T12:27:14.817Z,46.95
2023-05-13T12:28:14.828Z,44.57
2023-05-13T12:29:14.834Z,45.39
2023-05-13T12:30:14.557Z,44.69
2023-05-13T12:31:14.831Z,44.38
2023-05-13T12:32:14.792Z,46.19
2023-05-13T12:33:14.763Z,44.53
2023-05-13T12:34:14.735Z,42.65
2023-05-13T12:35:15.203Z,42.28
2023-05-13T12:36:14.725Z,40.39
2023-05-13T12:37:14.681Z,41.20
2023-05-13T12:38:14.651Z,41.38
2023-05-13T12:39:14.637Z,41.20
2023-05-13T12:40:14.623Z,42.61
2023-05-13T12:41:14.600Z,42.57
2023-05-13T12:42:14.602Z,42.90
2023-05-13T12:43:14.575Z,41.44
2023-05-13T12:44:14.559Z,41.63
2023-05-13T12:45:14.553Z,41.81